sensor_id;sensor_type;location;lat;lon;timestamp;temperature;humidity
41838;DHT22;27511;52.042;5.178;2024-01-30T00:01:51;8.50;99.90
41838;DHT22;27511;52.042;5.178;2024-01-30T00:04:16;8.50;99.90
41838;DHT22;27511;52.042;5.178;2024-01-30T00:06:45;8.40;99.90
41838;DHT22;27511;52.042;5.178;2024-01-30T00:09:11;8.40;99.90
41838;DHT22;27511;52.042;5.178;2024-01-30T00:11:40;8.40;99.90
41838;DHT22;27511;52.042;5.178;2024-01-30T00:14:05;8.40;99.90
41838;DHT22;27511;52.042;5.178;2024-01-30T00:16:31;8.40;99.90
41838;DHT22;27511;52.042;5.178;2024-01-30T00:18:57;8.40;99.90
41838;DHT22;27511;52.042;5.178;2024-01-30T00:21:23;8.40;99.90
41838;DHT22;27511;52.042;5.178;2024-01-30T00:23:49;8.40;99.90
41838;DHT22;27511;52.042;5.178;2024-01-30T00:26:15;8.40;99.90
41838;DHT22;27511;52.042;5.178;2024-01-30T00:28:41;8.30;99.90
41838;DHT22;27511;52.042;5.178;2024-01-30T00:31:07;8.40;99.90
41838;DHT22;27511;52.042;5.178;2024-01-30T00:33:33;8.30;99.90
41838;DHT22;27511;52.042;5.178;2024-01-30T00:35:58;8.30;99.90
41838;DHT22;27511;52.042;5.178;2024-01-30T00:38:24;8.30;99.90
41838;DHT22;27511;52.042;5.178;2024-01-30T00:40:49;8.30;99.90
41838;DHT22;27511;52.042;5.178;2024-01-30T00:43:15;8.30;99.90
41838;DHT22;27511;52.042;5.178;2024-01-30T00:45:45;8.20;99.90
41838;DHT22;27511;52.042;5.178;2024-01-30T00:48:11;8.20;99.90
41838;DHT22;27511;52.042;5.178;2024-01-30T00:50:36;8.20;99.90
41838;DHT22;27511;52.042;5.178;2024-01-30T00:53:02;8.10;99.90
41838;DHT22;27511;52.042;5.178;2024-01-30T00:55:27;8.10;99.90
41838;DHT22;27511;52.042;5.178;2024-01-30T00:57:53;8.10;99.90
41838;DHT22;27511;52.042;5.178;2024-01-30T01:00:19;8.10;99.90
41838;DHT22;27511;52.042;5.178;2024-01-30T01:02:46;8.00;99.90
41838;DHT22;27511;52.042;5.178;2024-01-30T01:05:12;8.00;99.90
41838;DHT22;27511;52.042;5.178;2024-01-30T01:07:38;8.00;99.90
41838;DHT22;27511;52.042;5.178;2024-01-30T01:10:03;8.00;99.90
41838;DHT22;27511;52.042;5.178;2024-01-30T01:12:29;8.00;99.90
41838;DHT22;27511;52.042;5.178;2024-01-30T01:14:55;8.00;99.90
41838;DHT22;27511;52.042;5.178;2024-01-30T01:17:20;8.00;99.90
41838;DHT22;27511;52.042;5.178;2024-01-30T01:19:49;8.10;99.90
41838;DHT22;27511;52.042;5.178;2024-01-30T01:22:17;8.00;99.90
41838;DHT22;27511;52.042;5.178;2024-01-30T01:24:43;8.00;99.90
41838;DHT22;27511;52.042;5.178;2024-01-30T01:27:09;8.00;99.90
41838;DHT22;27511;52.042;5.178;2024-01-30T01:29:34;8.10;99.90
41838;DHT22;27511;52.042;5.178;2024-01-30T01:32:00;8.10;99.90
41838;DHT22;27511;52.042;5.178;2024-01-30T01:34:25;8.10;99.90
41838;DHT22;27511;52.042;5.178;2024-01-30T01:36:51;8.10;99.90
41838;DHT22;27511;52.042;5.178;2024-01-30T01:39:17;8.10;99.90
41838;DHT22;27511;52.042;5.178;2024-01-30T01:41:43;8.10;99.90
41838;DHT22;27511;52.042;5.178;2024-01-30T01:44:09;8.10;99.90
41838;DHT22;27511;52.042;5.178;2024-01-30T01:46:34;8.10;99.90
41838;DHT22;27511;52.042;5.178;2024-01-30T01:49:02;8.00;99.90
41838;DHT22;27511;52.042;5.178;2024-01-30T01:51:29;8.10;99.90
41838;DHT22;27511;52.042;5.178;2024-01-30T01:53:57;8.00;99.90
41838;DHT22;27511;52.042;5.178;2024-01-30T01:56:23;8.00;99.90
41838;DHT22;27511;52.042;5.178;2024-01-30T01:58:50;8.00;99.90
41838;DHT22;27511;52.042;5.178;2024-01-30T02:01:19;8.00;99.90
41838;DHT22;27511;52.042;5.178;2024-01-30T02:03:46;8.00;99.90
41838;DHT22;27511;52.042;5.178;2024-01-30T02:06:12;8.10;99.90
41838;DHT22;27511;52.042;5.178;2024-01-30T02:08:39;8.00;99.90
41838;DHT22;27511;52.042;5.178;2024-01-30T02:11:05;8.00;99.90
41838;DHT22;27511;52.042;5.178;2024-01-30T02:13:30;8.10;99.90
41838;DHT22;27511;52.042;5.178;2024-01-30T02:15:56;8.10;99.90
41838;DHT22;27511;52.042;5.178;2024-01-30T02:18:22;8.10;99.90
41838;DHT22;27511;52.042;5.178;2024-01-30T02:20:48;8.00;99.90
41838;DHT22;27511;52.042;5.178;2024-01-30T02:23:19;8.00;99.90
41838;DHT22;27511;52.042;5.178;2024-01-30T02:25:45;8.00;99.90
41838;DHT22;27511;52.042;5.178;2024-01-30T02:28:14;8.00;99.90
41838;DHT22;27511;52.042;5.178;2024-01-30T02:30:40;8.00;99.90
41838;DHT22;27511;52.042;5.178;2024-01-30T02:33:06;8.00;99.90
41838;DHT22;27511;52.042;5.178;2024-01-30T02:35:31;8.00;99.90
41838;DHT22;27511;52.042;5.178;2024-01-30T02:37:58;8.00;99.90
41838;DHT22;27511;52.042;5.178;2024-01-30T02:40:24;8.00;99.90
41838;DHT22;27511;52.042;5.178;2024-01-30T02:42:50;8.00;99.90
41838;DHT22;27511;52.042;5.178;2024-01-30T02:45:15;8.10;99.90
41838;DHT22;27511;52.042;5.178;2024-01-30T02:47:43;8.00;99.90
41838;DHT22;27511;52.042;5.178;2024-01-30T02:50:09;8.10;99.90
41838;DHT22;27511;52.042;5.178;2024-01-30T02:52:35;8.10;99.90
41838;DHT22;27511;52.042;5.178;2024-01-30T02:55:01;8.10;99.90
41838;DHT22;27511;52.042;5.178;2024-01-30T02:57:28;8.10;99.90
41838;DHT22;27511;52.042;5.178;2024-01-30T02:59:54;8.20;99.90
41838;DHT22;27511;52.042;5.178;2024-01-30T03:02:19;8.10;99.90
41838;DHT22;27511;52.042;5.178;2024-01-30T03:04:45;8.10;99.90
41838;DHT22;27511;52.042;5.178;2024-01-30T03:07:11;8.10;99.90
41838;DHT22;27511;52.042;5.178;2024-01-30T03:09:37;8.10;99.90
41838;DHT22;27511;52.042;5.178;2024-01-30T03:12:04;8.20;99.90
41838;DHT22;27511;52.042;5.178;2024-01-30T03:14:32;8.10;99.90
41838;DHT22;27511;52.042;5.178;2024-01-30T03:16:58;8.10;99.90
41838;DHT22;27511;52.042;5.178;2024-01-30T03:19:24;8.20;99.90
41838;DHT22;27511;52.042;5.178;2024-01-30T03:21:50;8.10;99.90
41838;DHT22;27511;52.042;5.178;2024-01-30T03:24:16;8.20;99.90
41838;DHT22;27511;52.042;5.178;2024-01-30T03:26:42;8.10;99.90
41838;DHT22;27511;52.042;5.178;2024-01-30T03:29:08;8.20;99.90
41838;DHT22;27511;52.042;5.178;2024-01-30T03:31:36;8.10;99.90
41838;DHT22;27511;52.042;5.178;2024-01-30T03:34:02;8.20;99.90
41838;DHT22;27511;52.042;5.178;2024-01-30T03:36:28;8.10;99.90
41838;DHT22;27511;52.042;5.178;2024-01-30T03:38:56;8.20;99.90
41838;DHT22;27511;52.042;5.178;2024-01-30T03:41:22;8.20;99.90
41838;DHT22;27511;52.042;5.178;2024-01-30T03:43:50;8.20;99.90
41838;DHT22;27511;52.042;5.178;2024-01-30T03:46:15;8.30;99.90
41838;DHT22;27511;52.042;5.178;2024-01-30T03:48:41;8.30;99.90
41838;DHT22;27511;52.042;5.178;2024-01-30T03:51:07;8.30;99.90
41838;DHT22;27511;52.042;5.178;2024-01-30T03:53:38;8.40;99.90
41838;DHT22;27511;52.042;5.178;2024-01-30T03:56:04;8.30;99.90
41838;DHT22;27511;52.042;5.178;2024-01-30T03:58:30;8.30;99.90
41838;DHT22;27511;52.042;5.178;2024-01-30T04:00:55;8.30;99.90
41838;DHT22;27511;52.042;5.178;2024-01-30T04:03:21;8.30;99.90
41838;DHT22;27511;52.042;5.178;2024-01-30T04:05:46;8.40;99.90
41838;DHT22;27511;52.042;5.178;2024-01-30T04:08:12;8.40;99.90
41838;DHT22;27511;52.042;5.178;2024-01-30T04:10:37;8.40;99.90
41838;DHT22;27511;52.042;5.178;2024-01-30T04:13:03;8.40;99.90
41838;DHT22;27511;52.042;5.178;2024-01-30T04:15:29;8.30;99.90
41838;DHT22;27511;52.042;5.178;2024-01-30T04:17:57;8.40;99.90
41838;DHT22;27511;52.042;5.178;2024-01-30T04:20:24;8.30;99.90
41838;DHT22;27511;52.042;5.178;2024-01-30T04:22:50;8.40;99.90
41838;DHT22;27511;52.042;5.178;2024-01-30T04:25:16;8.30;99.90
41838;DHT22;27511;52.042;5.178;2024-01-30T04:27:42;8.40;99.90
41838;DHT22;27511;52.042;5.178;2024-01-30T04:30:08;8.40;99.90
41838;DHT22;27511;52.042;5.178;2024-01-30T04:32:35;8.40;99.90
41838;DHT22;27511;52.042;5.178;2024-01-30T04:35:00;8.50;99.90
41838;DHT22;27511;52.042;5.178;2024-01-30T04:37:26;8.40;99.90
41838;DHT22;27511;52.042;5.178;2024-01-30T04:39:52;8.50;99.90
41838;DHT22;27511;52.042;5.178;2024-01-30T04:42:17;8.40;99.90
41838;DHT22;27511;52.042;5.178;2024-01-30T04:44:43;8.50;99.90
41838;DHT22;27511;52.042;5.178;2024-01-30T04:47:09;8.50;99.90
41838;DHT22;27511;52.042;5.178;2024-01-30T04:49:38;8.50;99.90
41838;DHT22;27511;52.042;5.178;2024-01-30T04:52:06;8.50;99.90
41838;DHT22;27511;52.042;5.178;2024-01-30T04:54:33;8.40;99.90
41838;DHT22;27511;52.042;5.178;2024-01-30T04:56:58;8.50;99.90
41838;DHT22;27511;52.042;5.178;2024-01-30T04:59:24;8.40;99.90
41838;DHT22;27511;52.042;5.178;2024-01-30T05:01:52;8.40;99.90
41838;DHT22;27511;52.042;5.178;2024-01-30T05:04:18;8.50;99.90
41838;DHT22;27511;52.042;5.178;2024-01-30T05:06:44;8.50;99.90
41838;DHT22;27511;52.042;5.178;2024-01-30T05:09:10;8.50;99.90
41838;DHT22;27511;52.042;5.178;2024-01-30T05:11:40;8.50;99.90
41838;DHT22;27511;52.042;5.178;2024-01-30T05:14:07;8.60;99.90
41838;DHT22;27511;52.042;5.178;2024-01-30T05:16:34;8.70;99.90
41838;DHT22;27511;52.042;5.178;2024-01-30T05:19:02;8.60;99.90
41838;DHT22;27511;52.042;5.178;2024-01-30T05:21:28;8.70;99.90
41838;DHT22;27511;52.042;5.178;2024-01-30T05:23:54;8.70;99.90
41838;DHT22;27511;52.042;5.178;2024-01-30T05:26:19;8.80;99.90
41838;DHT22;27511;52.042;5.178;2024-01-30T05:28:45;8.80;99.90
41838;DHT22;27511;52.042;5.178;2024-01-30T05:31:10;9.00;99.90
41838;DHT22;27511;52.042;5.178;2024-01-30T05:33:36;9.10;99.90
41838;DHT22;27511;52.042;5.178;2024-01-30T05:36:02;9.20;99.90
41838;DHT22;27511;52.042;5.178;2024-01-30T05:38:29;9.20;99.90
41838;DHT22;27511;52.042;5.178;2024-01-30T05:40:55;9.40;99.90
41838;DHT22;27511;52.042;5.178;2024-01-30T05:43:26;9.40;99.90
41838;DHT22;27511;52.042;5.178;2024-01-30T05:45:52;9.40;99.90
41838;DHT22;27511;52.042;5.178;2024-01-30T05:48:18;9.40;99.90
41838;DHT22;27511;52.042;5.178;2024-01-30T05:50:43;9.40;99.90
41838;DHT22;27511;52.042;5.178;2024-01-30T05:53:10;9.40;99.90
41838;DHT22;27511;52.042;5.178;2024-01-30T05:55:36;9.50;99.90
41838;DHT22;27511;52.042;5.178;2024-01-30T05:58:02;9.50;99.90
41838;DHT22;27511;52.042;5.178;2024-01-30T06:00:28;9.60;99.90
41838;DHT22;27511;52.042;5.178;2024-01-30T06:02:53;9.70;99.90
41838;DHT22;27511;52.042;5.178;2024-01-30T06:05:19;9.70;99.90
41838;DHT22;27511;52.042;5.178;2024-01-30T06:07:44;9.70;99.90
41838;DHT22;27511;52.042;5.178;2024-01-30T06:10:10;9.70;99.90
41838;DHT22;27511;52.042;5.178;2024-01-30T06:12:36;9.80;99.90
41838;DHT22;27511;52.042;5.178;2024-01-30T06:15:02;9.80;99.90
41838;DHT22;27511;52.042;5.178;2024-01-30T06:17:28;9.70;99.90
41838;DHT22;27511;52.042;5.178;2024-01-30T06:19:54;9.80;99.90
41838;DHT22;27511;52.042;5.178;2024-01-30T06:22:21;9.80;99.90
41838;DHT22;27511;52.042;5.178;2024-01-30T06:24:47;9.90;99.90
41838;DHT22;27511;52.042;5.178;2024-01-30T06:27:15;10.00;99.90
41838;DHT22;27511;52.042;5.178;2024-01-30T06:29:43;10.00;99.90
41838;DHT22;27511;52.042;5.178;2024-01-30T06:32:08;10.00;99.90
41838;DHT22;27511;52.042;5.178;2024-01-30T06:34:34;10.20;99.90
41838;DHT22;27511;52.042;5.178;2024-01-30T06:37:00;10.20;99.90
41838;DHT22;27511;52.042;5.178;2024-01-30T06:39:26;10.30;99.90
41838;DHT22;27511;52.042;5.178;2024-01-30T06:41:52;10.50;99.90
41838;DHT22;27511;52.042;5.178;2024-01-30T06:44:17;10.40;99.90
41838;DHT22;27511;52.042;5.178;2024-01-30T06:46:43;10.50;99.90
41838;DHT22;27511;52.042;5.178;2024-01-30T06:49:09;10.50;99.90
41838;DHT22;27511;52.042;5.178;2024-01-30T06:51:34;10.40;99.90
41838;DHT22;27511;52.042;5.178;2024-01-30T06:54:00;10.50;99.90
41838;DHT22;27511;52.042;5.178;2024-01-30T06:56:29;10.50;99.90
41838;DHT22;27511;52.042;5.178;2024-01-30T06:58:55;10.60;99.90
41838;DHT22;27511;52.042;5.178;2024-01-30T07:01:21;10.60;99.90
41838;DHT22;27511;52.042;5.178;2024-01-30T07:03:52;10.60;99.90
41838;DHT22;27511;52.042;5.178;2024-01-30T07:06:21;10.60;99.90
41838;DHT22;27511;52.042;5.178;2024-01-30T07:08:48;10.60;99.90
41838;DHT22;27511;52.042;5.178;2024-01-30T07:11:21;10.70;99.90
41838;DHT22;27511;52.042;5.178;2024-01-30T07:13:53;10.60;99.90
41838;DHT22;27511;52.042;5.178;2024-01-30T07:16:19;10.80;99.90
41838;DHT22;27511;52.042;5.178;2024-01-30T07:18:45;10.80;99.90
41838;DHT22;27511;52.042;5.178;2024-01-30T07:21:11;10.80;99.90
41838;DHT22;27511;52.042;5.178;2024-01-30T07:23:36;10.80;99.90
41838;DHT22;27511;52.042;5.178;2024-01-30T07:26:04;10.90;99.90
41838;DHT22;27511;52.042;5.178;2024-01-30T07:28:30;10.90;99.90
41838;DHT22;27511;52.042;5.178;2024-01-30T07:30:56;11.00;99.90
41838;DHT22;27511;52.042;5.178;2024-01-30T07:33:21;11.00;99.90
41838;DHT22;27511;52.042;5.178;2024-01-30T07:35:47;11.00;99.90
41838;DHT22;27511;52.042;5.178;2024-01-30T07:38:12;11.00;99.90
41838;DHT22;27511;52.042;5.178;2024-01-30T07:40:38;11.00;99.90
41838;DHT22;27511;52.042;5.178;2024-01-30T07:43:04;11.00;99.90
41838;DHT22;27511;52.042;5.178;2024-01-30T07:45:29;11.00;99.90
41838;DHT22;27511;52.042;5.178;2024-01-30T07:47:58;11.00;99.90
41838;DHT22;27511;52.042;5.178;2024-01-30T07:50:25;10.90;99.90
41838;DHT22;27511;52.042;5.178;2024-01-30T07:52:51;11.10;99.90
41838;DHT22;27511;52.042;5.178;2024-01-30T07:55:20;11.10;99.90
41838;DHT22;27511;52.042;5.178;2024-01-30T07:57:51;11.10;99.90
41838;DHT22;27511;52.042;5.178;2024-01-30T08:00:18;11.10;99.90
41838;DHT22;27511;52.042;5.178;2024-01-30T08:02:53;11.30;99.90
41838;DHT22;27511;52.042;5.178;2024-01-30T08:05:22;11.20;99.90
41838;DHT22;27511;52.042;5.178;2024-01-30T08:07:51;11.20;99.90
41838;DHT22;27511;52.042;5.178;2024-01-30T08:10:17;11.20;99.90
41838;DHT22;27511;52.042;5.178;2024-01-30T08:12:44;11.30;99.90
41838;DHT22;27511;52.042;5.178;2024-01-30T08:15:10;11.40;99.90
41838;DHT22;27511;52.042;5.178;2024-01-30T08:17:35;11.20;99.90
41838;DHT22;27511;52.042;5.178;2024-01-30T08:20:01;11.30;99.90
41838;DHT22;27511;52.042;5.178;2024-01-30T08:22:31;11.30;99.90
41838;DHT22;27511;52.042;5.178;2024-01-30T08:24:56;11.40;99.90
41838;DHT22;27511;52.042;5.178;2024-01-30T08:27:22;11.50;99.90
41838;DHT22;27511;52.042;5.178;2024-01-30T08:29:47;11.50;99.90
41838;DHT22;27511;52.042;5.178;2024-01-30T08:32:13;11.50;99.90
41838;DHT22;27511;52.042;5.178;2024-01-30T08:34:39;11.50;99.90
41838;DHT22;27511;52.042;5.178;2024-01-30T08:37:05;11.60;99.90
41838;DHT22;27511;52.042;5.178;2024-01-30T08:39:30;11.60;99.90
41838;DHT22;27511;52.042;5.178;2024-01-30T08:41:56;11.60;99.90
41838;DHT22;27511;52.042;5.178;2024-01-30T08:44:22;11.60;99.90
41838;DHT22;27511;52.042;5.178;2024-01-30T08:46:47;11.70;99.90
41838;DHT22;27511;52.042;5.178;2024-01-30T08:49:17;11.70;99.90
41838;DHT22;27511;52.042;5.178;2024-01-30T08:51:42;11.80;99.90
41838;DHT22;27511;52.042;5.178;2024-01-30T08:54:08;11.90;99.90
41838;DHT22;27511;52.042;5.178;2024-01-30T08:56:33;11.90;99.90
41838;DHT22;27511;52.042;5.178;2024-01-30T08:58:59;11.80;99.90
41838;DHT22;27511;52.042;5.178;2024-01-30T09:01:25;11.90;99.90
41838;DHT22;27511;52.042;5.178;2024-01-30T09:03:51;11.90;99.90
41838;DHT22;27511;52.042;5.178;2024-01-30T09:06:16;12.00;99.90
41838;DHT22;27511;52.042;5.178;2024-01-30T09:08:42;12.10;99.90
41838;DHT22;27511;52.042;5.178;2024-01-30T09:11:12;12.10;99.90
41838;DHT22;27511;52.042;5.178;2024-01-30T09:13:38;12.10;99.90
41838;DHT22;27511;52.042;5.178;2024-01-30T09:16:04;12.00;99.90
41838;DHT22;27511;52.042;5.178;2024-01-30T09:18:30;12.10;99.90
41838;DHT22;27511;52.042;5.178;2024-01-30T09:20:55;12.10;99.90
41838;DHT22;27511;52.042;5.178;2024-01-30T09:23:21;12.10;99.90
41838;DHT22;27511;52.042;5.178;2024-01-30T09:25:47;12.10;99.90
41838;DHT22;27511;52.042;5.178;2024-01-30T09:28:13;12.10;99.90
41838;DHT22;27511;52.042;5.178;2024-01-30T09:30:38;12.20;99.90
41838;DHT22;27511;52.042;5.178;2024-01-30T09:33:05;12.10;99.90
41838;DHT22;27511;52.042;5.178;2024-01-30T09:35:30;12.10;99.90
41838;DHT22;27511;52.042;5.178;2024-01-30T09:37:56;12.00;99.90
41838;DHT22;27511;52.042;5.178;2024-01-30T09:40:23;12.20;99.90
41838;DHT22;27511;52.042;5.178;2024-01-30T09:42:50;12.10;99.90
41838;DHT22;27511;52.042;5.178;2024-01-30T09:45:49;12.10;99.90
41838;DHT22;27511;52.042;5.178;2024-01-30T09:48:15;12.20;99.90
41838;DHT22;27511;52.042;5.178;2024-01-30T09:50:41;12.20;99.90
41838;DHT22;27511;52.042;5.178;2024-01-30T09:53:08;12.10;99.90
41838;DHT22;27511;52.042;5.178;2024-01-30T09:55:36;12.20;99.90
41838;DHT22;27511;52.042;5.178;2024-01-30T09:58:02;12.00;99.90
41838;DHT22;27511;52.042;5.178;2024-01-30T10:00:27;12.10;99.90
41838;DHT22;27511;52.042;5.178;2024-01-30T10:02:53;12.10;99.90
41838;DHT22;27511;52.042;5.178;2024-01-30T10:05:19;12.20;99.90
41838;DHT22;27511;52.042;5.178;2024-01-30T10:07:56;12.30;99.90
41838;DHT22;27511;52.042;5.178;2024-01-30T10:10:23;12.30;99.90
41838;DHT22;27511;52.042;5.178;2024-01-30T10:12:49;12.40;99.90
41838;DHT22;27511;52.042;5.178;2024-01-30T10:15:15;12.40;99.90
41838;DHT22;27511;52.042;5.178;2024-01-30T10:17:41;12.40;99.90
41838;DHT22;27511;52.042;5.178;2024-01-30T10:20:06;12.50;99.90
41838;DHT22;27511;52.042;5.178;2024-01-30T10:22:33;12.50;99.90
41838;DHT22;27511;52.042;5.178;2024-01-30T10:25:00;12.70;99.90
41838;DHT22;27511;52.042;5.178;2024-01-30T10:27:26;12.60;99.90
41838;DHT22;27511;52.042;5.178;2024-01-30T10:29:52;12.50;99.90
41838;DHT22;27511;52.042;5.178;2024-01-30T10:32:19;12.50;99.90
41838;DHT22;27511;52.042;5.178;2024-01-30T10:34:45;12.50;99.90
41838;DHT22;27511;52.042;5.178;2024-01-30T10:37:11;12.50;99.90
41838;DHT22;27511;52.042;5.178;2024-01-30T10:39:46;12.60;99.90
41838;DHT22;27511;52.042;5.178;2024-01-30T10:42:17;12.50;99.90
41838;DHT22;27511;52.042;5.178;2024-01-30T10:45:08;12.60;99.90
41838;DHT22;27511;52.042;5.178;2024-01-30T10:47:35;12.40;99.90
41838;DHT22;27511;52.042;5.178;2024-01-30T10:50:02;12.50;99.90
41838;DHT22;27511;52.042;5.178;2024-01-30T10:52:32;12.50;99.90
41838;DHT22;27511;52.042;5.178;2024-01-30T10:54:58;12.40;99.90
41838;DHT22;27511;52.042;5.178;2024-01-30T10:57:25;12.50;99.90
41838;DHT22;27511;52.042;5.178;2024-01-30T10:59:55;12.50;99.90
41838;DHT22;27511;52.042;5.178;2024-01-30T11:02:22;12.50;99.90
41838;DHT22;27511;52.042;5.178;2024-01-30T11:04:49;12.20;99.90
41838;DHT22;27511;52.042;5.178;2024-01-30T11:07:16;12.10;99.90
41838;DHT22;27511;52.042;5.178;2024-01-30T11:09:52;12.20;99.90
41838;DHT22;27511;52.042;5.178;2024-01-30T11:12:25;12.30;99.90
41838;DHT22;27511;52.042;5.178;2024-01-30T11:15:05;12.40;99.90
41838;DHT22;27511;52.042;5.178;2024-01-30T11:17:45;12.30;99.90
41838;DHT22;27511;52.042;5.178;2024-01-30T11:20:25;12.20;99.90
41838;DHT22;27511;52.042;5.178;2024-01-30T11:22:52;11.80;99.90
41838;DHT22;27511;52.042;5.178;2024-01-30T11:25:20;11.80;99.90
41838;DHT22;27511;52.042;5.178;2024-01-30T11:27:46;11.70;99.90
41838;DHT22;27511;52.042;5.178;2024-01-30T11:30:25;11.70;99.90
41838;DHT22;27511;52.042;5.178;2024-01-30T11:35:39;11.60;99.90
41838;DHT22;27511;52.042;5.178;2024-01-30T11:38:06;11.60;99.90
41838;DHT22;27511;52.042;5.178;2024-01-30T11:40:32;11.50;99.90
41838;DHT22;27511;52.042;5.178;2024-01-30T11:43:02;11.30;99.90
41838;DHT22;27511;52.042;5.178;2024-01-30T11:45:28;11.30;99.90
41838;DHT22;27511;52.042;5.178;2024-01-30T11:47:54;11.40;99.90
41838;DHT22;27511;52.042;5.178;2024-01-30T11:50:20;11.40;99.90
41838;DHT22;27511;52.042;5.178;2024-01-30T11:52:46;11.40;99.90
41838;DHT22;27511;52.042;5.178;2024-01-30T11:55:12;11.60;99.90
41838;DHT22;27511;52.042;5.178;2024-01-30T11:57:38;11.50;99.90
41838;DHT22;27511;52.042;5.178;2024-01-30T12:00:05;11.60;99.90
41838;DHT22;27511;52.042;5.178;2024-01-30T12:02:37;11.50;99.90
41838;DHT22;27511;52.042;5.178;2024-01-30T12:05:06;11.50;99.90
41838;DHT22;27511;52.042;5.178;2024-01-30T12:07:32;11.40;99.90
41838;DHT22;27511;52.042;5.178;2024-01-30T12:09:58;11.50;99.90
41838;DHT22;27511;52.042;5.178;2024-01-30T12:12:25;11.50;99.90
41838;DHT22;27511;52.042;5.178;2024-01-30T12:14:51;11.40;99.90
41838;DHT22;27511;52.042;5.178;2024-01-30T12:17:32;11.20;99.90
41838;DHT22;27511;52.042;5.178;2024-01-30T12:20:14;11.20;99.90
41838;DHT22;27511;52.042;5.178;2024-01-30T12:22:44;11.00;99.90
41838;DHT22;27511;52.042;5.178;2024-01-30T12:25:11;11.10;99.90
41838;DHT22;27511;52.042;5.178;2024-01-30T12:27:38;11.10;99.90
41838;DHT22;27511;52.042;5.178;2024-01-30T12:30:07;11.00;99.90
41838;DHT22;27511;52.042;5.178;2024-01-30T12:32:40;10.90;99.90
41838;DHT22;27511;52.042;5.178;2024-01-30T12:35:10;11.10;99.90
41838;DHT22;27511;52.042;5.178;2024-01-30T12:37:37;11.10;99.90
41838;DHT22;27511;52.042;5.178;2024-01-30T12:40:02;11.10;99.90
41838;DHT22;27511;52.042;5.178;2024-01-30T12:42:29;11.10;99.90
41838;DHT22;27511;52.042;5.178;2024-01-30T12:44:57;11.00;99.90
41838;DHT22;27511;52.042;5.178;2024-01-30T12:47:23;10.80;99.90
41838;DHT22;27511;52.042;5.178;2024-01-30T12:49:49;11.10;99.90
41838;DHT22;27511;52.042;5.178;2024-01-30T12:52:19;11.20;99.90
41838;DHT22;27511;52.042;5.178;2024-01-30T12:54:45;11.30;99.90
41838;DHT22;27511;52.042;5.178;2024-01-30T12:57:10;11.10;99.90
41838;DHT22;27511;52.042;5.178;2024-01-30T12:59:36;11.10;99.90
41838;DHT22;27511;52.042;5.178;2024-01-30T13:02:02;11.10;99.90
41838;DHT22;27511;52.042;5.178;2024-01-30T13:04:29;11.10;99.90
41838;DHT22;27511;52.042;5.178;2024-01-30T13:06:54;11.20;99.90
41838;DHT22;27511;52.042;5.178;2024-01-30T13:09:20;11.30;99.90
41838;DHT22;27511;52.042;5.178;2024-01-30T13:11:46;11.10;99.90
41838;DHT22;27511;52.042;5.178;2024-01-30T13:14:11;11.30;99.90
41838;DHT22;27511;52.042;5.178;2024-01-30T13:16:37;11.30;99.90
41838;DHT22;27511;52.042;5.178;2024-01-30T13:19:03;11.20;99.90
41838;DHT22;27511;52.042;5.178;2024-01-30T13:21:29;11.20;99.90
41838;DHT22;27511;52.042;5.178;2024-01-30T13:23:54;11.10;99.90
41838;DHT22;27511;52.042;5.178;2024-01-30T13:26:20;11.20;99.90
41838;DHT22;27511;52.042;5.178;2024-01-30T13:28:46;11.20;99.90
41838;DHT22;27511;52.042;5.178;2024-01-30T13:31:13;11.30;99.90
41838;DHT22;27511;52.042;5.178;2024-01-30T13:33:40;11.20;99.90
41838;DHT22;27511;52.042;5.178;2024-01-30T13:36:06;11.30;99.90
41838;DHT22;27511;52.042;5.178;2024-01-30T13:38:32;11.30;99.90
41838;DHT22;27511;52.042;5.178;2024-01-30T13:40:58;11.20;99.90
41838;DHT22;27511;52.042;5.178;2024-01-30T13:43:23;11.10;99.90
41838;DHT22;27511;52.042;5.178;2024-01-30T13:45:49;11.10;99.90
41838;DHT22;27511;52.042;5.178;2024-01-30T13:48:15;11.20;99.90
41838;DHT22;27511;52.042;5.178;2024-01-30T13:50:40;11.10;99.90
41838;DHT22;27511;52.042;5.178;2024-01-30T13:53:06;11.10;99.90
41838;DHT22;27511;52.042;5.178;2024-01-30T13:55:31;11.10;99.90
41838;DHT22;27511;52.042;5.178;2024-01-30T13:57:57;11.20;99.90
41838;DHT22;27511;52.042;5.178;2024-01-30T14:00:23;11.00;99.90
41838;DHT22;27511;52.042;5.178;2024-01-30T14:02:50;10.90;99.90
41838;DHT22;27511;52.042;5.178;2024-01-30T14:05:16;11.10;99.90
41838;DHT22;27511;52.042;5.178;2024-01-30T14:07:43;11.20;99.90
41838;DHT22;27511;52.042;5.178;2024-01-30T14:10:09;11.30;99.90
41838;DHT22;27511;52.042;5.178;2024-01-30T14:12:36;11.20;99.90
41838;DHT22;27511;52.042;5.178;2024-01-30T14:15:02;11.10;99.90
41838;DHT22;27511;52.042;5.178;2024-01-30T14:17:28;11.20;99.90
41838;DHT22;27511;52.042;5.178;2024-01-30T14:19:53;11.20;99.90
41838;DHT22;27511;52.042;5.178;2024-01-30T14:22:19;11.20;99.90
41838;DHT22;27511;52.042;5.178;2024-01-30T14:24:44;11.30;99.90
41838;DHT22;27511;52.042;5.178;2024-01-30T14:27:10;11.20;99.90
41838;DHT22;27511;52.042;5.178;2024-01-30T14:29:36;11.10;99.90
41838;DHT22;27511;52.042;5.178;2024-01-30T14:32:02;11.10;99.90
41838;DHT22;27511;52.042;5.178;2024-01-30T14:34:28;11.00;99.90
41838;DHT22;27511;52.042;5.178;2024-01-30T14:36:53;11.10;99.90
41838;DHT22;27511;52.042;5.178;2024-01-30T14:39:19;11.10;99.90
41838;DHT22;27511;52.042;5.178;2024-01-30T14:41:45;11.10;99.90
41838;DHT22;27511;52.042;5.178;2024-01-30T14:44:10;11.00;99.90
41838;DHT22;27511;52.042;5.178;2024-01-30T14:46:36;10.70;99.90
41838;DHT22;27511;52.042;5.178;2024-01-30T14:49:05;10.80;99.90
41838;DHT22;27511;52.042;5.178;2024-01-30T14:51:32;10.80;99.90
41838;DHT22;27511;52.042;5.178;2024-01-30T14:53:59;10.90;99.90
41838;DHT22;27511;52.042;5.178;2024-01-30T14:56:25;10.80;99.90
41838;DHT22;27511;52.042;5.178;2024-01-30T14:58:50;10.80;99.90
41838;DHT22;27511;52.042;5.178;2024-01-30T15:01:16;10.80;99.90
41838;DHT22;27511;52.042;5.178;2024-01-30T15:03:42;10.90;99.90
41838;DHT22;27511;52.042;5.178;2024-01-30T15:06:08;10.90;99.90
41838;DHT22;27511;52.042;5.178;2024-01-30T15:08:46;10.90;99.90
41838;DHT22;27511;52.042;5.178;2024-01-30T15:11:12;10.80;99.90
41838;DHT22;27511;52.042;5.178;2024-01-30T15:13:38;10.80;99.90
41838;DHT22;27511;52.042;5.178;2024-01-30T15:16:04;11.00;99.90
41838;DHT22;27511;52.042;5.178;2024-01-30T15:18:31;10.90;99.90
41838;DHT22;27511;52.042;5.178;2024-01-30T15:20:56;10.60;99.90
41838;DHT22;27511;52.042;5.178;2024-01-30T15:23:22;10.70;99.90
41838;DHT22;27511;52.042;5.178;2024-01-30T15:25:48;10.80;99.90
41838;DHT22;27511;52.042;5.178;2024-01-30T15:28:13;10.80;99.90
41838;DHT22;27511;52.042;5.178;2024-01-30T15:30:40;10.60;99.90
41838;DHT22;27511;52.042;5.178;2024-01-30T15:33:11;10.70;99.90
41838;DHT22;27511;52.042;5.178;2024-01-30T15:35:37;10.70;99.90
41838;DHT22;27511;52.042;5.178;2024-01-30T15:38:07;10.70;99.90